createdAt,value
2018-10-19T00:00:52.823Z,32.42
2018-10-19T00:03:20.865Z,33.83
2018-10-19T00:05:48.926Z,32.90
2018-10-19T00:08:17.024Z,39.75
2018-10-19T00:10:45.270Z,41.48
2018-10-19T00:13:13.355Z,40.10
2018-10-19T00:15:41.613Z,41.68
2018-10-19T00:18:09.821Z,41.85
2018-10-19T00:20:37.884Z,39.55
2018-10-19T00:23:06.053Z,36.07
2018-10-19T00:25:34.133Z,36.10
2018-10-19T00:28:02.153Z,36.03
2018-10-19T00:30:30.182Z,35.03
2018-10-19T00:32:58.361Z,38.23
2018-10-19T00:35:26.590Z,36.20
2018-10-19T00:37:54.795Z,35.98
2018-10-19T00:40:23.008Z,35.68
2018-10-19T00:42:51.069Z,37.88
2018-10-19T00:45:23.206Z,43.00
2018-10-19T00:47:51.406Z,37.95
2018-10-19T00:50:19.549Z,35.92
2018-10-19T00:52:47.661Z,35.00
2018-10-19T00:55:15.899Z,36.08
2018-10-19T00:57:44.126Z,31.90
2018-10-19T01:00:12.365Z,32.20
2018-10-19T01:02:40.551Z,31.48
2018-10-19T01:05:08.901Z,34.27
2018-10-19T01:07:37.067Z,34.20
2018-10-19T01:10:05.160Z,38.10
2018-10-19T01:12:33.730Z,36.68
2018-10-19T01:15:02.023Z,39.95
2018-10-19T01:17:30.092Z,44.07
2018-10-19T01:19:58.305Z,32.85
2018-10-19T01:22:26.346Z,31.25
2018-10-19T01:24:54.653Z,31.93
2018-10-19T01:27:22.913Z,32.63
2018-10-19T01:29:50.994Z,29.82
2018-10-19T01:32:19.180Z,29.20
2018-10-19T01:34:47.609Z,28.32
2018-10-19T01:37:15.964Z,26.33
2018-10-19T01:39:44.093Z,26.50
2018-10-19T01:42:12.185Z,25.17
2018-10-19T01:44:40.446Z,31.68
2018-10-19T01:47:08.676Z,30.97
2018-10-19T01:49:36.693Z,31.00
2018-10-19T01:52:05.277Z,28.10
2018-10-19T01:54:33.458Z,26.80
2018-10-19T01:57:01.667Z,28.00
2018-10-19T01:59:29.925Z,26.02
2018-10-19T02:01:57.973Z,26.00
2018-10-19T02:04:26.108Z,27.70
2018-10-19T02:06:54.232Z,27.42
2018-10-19T02:09:22.422Z,27.27
2018-10-19T02:11:50.565Z,27.55
2018-10-19T02:14:18.641Z,27.35
2018-10-19T02:16:46.929Z,28.83
2018-10-19T02:19:15.130Z,29.25
2018-10-19T02:21:43.608Z,29.70
2018-10-19T02:24:11.774Z,29.00
2018-10-19T02:26:40.473Z,29.37
2018-10-19T02:29:08.773Z,29.48
2018-10-19T02:31:36.922Z,31.87
2018-10-19T02:34:05.488Z,32.53
2018-10-19T02:36:33.641Z,32.38
2018-10-19T02:39:01.994Z,31.55
2018-10-19T02:41:30.336Z,32.20
2018-10-19T02:43:58.690Z,30.27
2018-10-19T02:46:26.794Z,30.65
2018-10-19T02:48:54.918Z,29.85
2018-10-19T02:51:23.222Z,30.10
2018-10-19T02:53:51.555Z,30.00
2018-10-19T02:56:19.573Z,30.37
2018-10-19T02:58:47.809Z,30.05
2018-10-19T03:01:16.025Z,29.80
2018-10-19T03:03:44.166Z,29.30
2018-10-19T03:06:12.276Z,29.70
2018-10-19T03:08:40.485Z,27.35
2018-10-19T03:11:08.629Z,26.45
2018-10-19T03:13:36.716Z,25.30
2018-10-19T03:16:05.085Z,27.22
2018-10-19T03:18:33.204Z,28.25
2018-10-19T03:21:01.356Z,27.90
2018-10-19T03:23:29.611Z,28.40
2018-10-19T03:25:57.761Z,30.10
2018-10-19T03:28:25.864Z,29.92
2018-10-19T03:30:54.192Z,30.52
2018-10-19T03:33:22.310Z,28.47
2018-10-19T03:35:50.621Z,29.52
2018-10-19T03:38:18.781Z,30.97
2018-10-19T03:40:46.856Z,30.12
2018-10-19T03:43:14.941Z,31.15
2018-10-19T03:45:43.193Z,31.30
2018-10-19T03:48:11.581Z,31.25
2018-10-19T03:50:39.811Z,32.48
2018-10-19T03:53:08.169Z,31.77
2018-10-19T03:55:36.413Z,33.55
2018-10-19T03:58:04.862Z,34.67
2018-10-19T04:00:32.973Z,35.78
2018-10-19T04:03:01.081Z,34.58
2018-10-19T04:05:29.117Z,36.63
2018-10-19T04:07:57.178Z,36.08
2018-10-19T04:10:25.268Z,34.05
2018-10-19T04:12:53.528Z,32.03
2018-10-19T04:15:21.878Z,30.23
2018-10-19T04:17:50.086Z,29.15
2018-10-19T04:20:18.316Z,30.00
2018-10-19T04:22:46.355Z,31.57
2018-10-19T04:25:14.440Z,34.60
2018-10-19T04:27:42.606Z,33.73
2018-10-19T04:30:10.689Z,33.60
2018-10-19T04:32:40.067Z,37.35
2018-10-19T04:35:08.222Z,39.13
2018-10-19T04:37:36.328Z,46.60
2018-10-19T04:40:05.096Z,50.43
2018-10-19T04:42:33.204Z,55.45
2018-10-19T04:45:01.459Z,57.70
2018-10-19T04:47:29.572Z,61.98
2018-10-19T04:49:57.703Z,72.12
2018-10-19T04:52:25.908Z,81.75
2018-10-19T04:54:54.291Z,104.37
2018-10-19T04:57:22.680Z,91.37
2018-10-19T04:59:51.025Z,92.65
2018-10-19T05:02:19.137Z,72.85
2018-10-19T05:04:47.295Z,77.62
2018-10-19T05:07:15.574Z,81.27
2018-10-19T05:09:43.934Z,78.00
2018-10-19T05:12:11.989Z,68.55
2018-10-19T05:14:40.821Z,73.72
2018-10-19T05:17:09.021Z,65.80
2018-10-19T05:19:37.172Z,57.30
2018-10-19T05:22:05.620Z,51.30
2018-10-19T05:24:33.813Z,51.20
2018-10-19T05:27:02.097Z,53.45
2018-10-19T05:29:30.481Z,51.68
2018-10-19T05:31:58.588Z,52.98
2018-10-19T05:34:26.716Z,52.95
2018-10-19T05:36:55.121Z,59.83
2018-10-19T05:39:23.240Z,59.30
2018-10-19T05:41:51.605Z,76.80
2018-10-19T05:44:19.710Z,85.07
2018-10-19T05:46:48.003Z,81.20
2018-10-19T05:49:16.259Z,84.67
2018-10-19T05:51:44.773Z,99.62
2018-10-19T05:54:13.165Z,84.50
2018-10-19T05:56:41.384Z,84.37
2018-10-19T05:59:09.825Z,91.12
2018-10-19T06:01:38.202Z,108.55
2018-10-19T06:04:06.607Z,115.93
2018-10-19T06:06:34.716Z,136.68
2018-10-19T06:09:03.115Z,140.30
2018-10-19T06:11:36.116Z,142.60
2018-10-19T06:14:06.662Z,273.98
2018-10-19T06:16:35.374Z,127.70
2018-10-19T06:19:03.509Z,270.93
2018-10-19T06:21:31.991Z,248.00
2018-10-19T06:24:00.083Z,279.60
2018-10-19T06:26:28.254Z,212.02
2018-10-19T06:28:56.849Z,164.95
2018-10-19T06:31:25.001Z,137.07
2018-10-19T06:33:54.002Z,129.82
2018-10-19T06:36:22.342Z,146.15
2018-10-19T06:38:50.742Z,219.05
2018-10-19T06:41:19.034Z,238.52
2018-10-19T06:43:47.290Z,157.60
2018-10-19T06:46:15.378Z,176.03
2018-10-19T06:48:43.410Z,226.65
2018-10-19T06:51:14.633Z,224.00
2018-10-19T06:53:42.859Z,250.30
2018-10-19T06:56:11.515Z,224.42
2018-10-19T06:58:47.381Z,159.05
2018-10-19T07:01:25.123Z,187.40
2018-10-19T07:03:56.045Z,120.73
2018-10-19T07:06:26.340Z,179.03
2018-10-19T07:08:57.175Z,191.35
2018-10-19T07:11:28.976Z,182.78
2018-10-19T07:13:59.925Z,178.93
2018-10-19T07:16:35.427Z,153.80
2018-10-19T07:19:06.667Z,146.13
2018-10-19T07:21:34.973Z,122.50
2018-10-19T07:24:03.151Z,138.07
2018-10-19T07:26:31.243Z,156.12
2018-10-19T07:28:59.656Z,139.00
2018-10-19T07:31:27.813Z,135.03
2018-10-19T07:33:55.896Z,171.22
2018-10-19T07:36:24.206Z,147.10
2018-10-19T07:41:49.863Z,133.50
2018-10-19T07:44:17.914Z,136.30
2018-10-19T07:46:46.171Z,118.10
2018-10-19T07:49:14.280Z,105.90
2018-10-19T07:51:42.544Z,119.00
2018-10-19T07:54:10.836Z,118.37
2018-10-19T07:56:38.924Z,102.95
2018-10-19T07:59:07.397Z,111.35
2018-10-19T08:01:35.451Z,110.97
2018-10-19T08:04:03.561Z,104.75
2018-10-19T08:06:31.691Z,104.95
2018-10-19T08:08:59.777Z,108.57
2018-10-19T08:11:28.119Z,103.25
2018-10-19T08:13:56.161Z,101.07
2018-10-19T08:16:24.291Z,91.60
2018-10-19T08:18:52.385Z,95.17
2018-10-19T08:21:20.421Z,87.40
2018-10-19T08:23:48.640Z,89.27
2018-10-19T08:26:16.725Z,90.72
2018-10-19T08:28:44.873Z,85.10
2018-10-19T08:31:13.129Z,84.50
2018-10-19T08:33:41.340Z,87.30
2018-10-19T08:36:09.510Z,87.02
2018-10-19T08:38:37.559Z,82.17
2018-10-19T08:41:05.710Z,83.27
2018-10-19T08:43:33.700Z,83.27
2018-10-19T08:46:07.410Z,84.97
2018-10-19T08:48:35.805Z,79.62
2018-10-19T08:51:04.203Z,77.58
2018-10-19T08:53:32.408Z,76.57
2018-10-19T08:56:00.446Z,75.03
2018-10-19T08:58:29.054Z,76.85
2018-10-19T09:00:57.200Z,74.10
2018-10-19T09:03:25.358Z,79.77
2018-10-19T09:05:53.463Z,78.40
2018-10-19T09:08:21.594Z,81.35
2018-10-19T09:10:49.714Z,80.20
2018-10-19T09:13:17.853Z,77.95
2018-10-19T09:15:46.026Z,76.92
2018-10-19T09:18:14.106Z,81.95
2018-10-19T09:20:42.303Z,89.10
2018-10-19T09:23:10.512Z,87.67
2018-10-19T09:25:38.832Z,87.50
2018-10-19T09:28:06.885Z,86.73
2018-10-19T09:30:35.085Z,88.25
2018-10-19T09:33:03.418Z,87.13
2018-10-19T09:35:31.541Z,89.72
2018-10-19T09:37:59.628Z,88.27
2018-10-19T09:40:27.904Z,87.12
2018-10-19T09:42:56.078Z,88.37
2018-10-19T09:45:24.167Z,90.12
2018-10-19T09:47:52.185Z,85.53
2018-10-19T09:50:20.282Z,88.90
2018-10-19T09:52:48.327Z,89.00
2018-10-19T09:55:16.503Z,91.77
2018-10-19T09:57:44.706Z,94.30
2018-10-19T10:00:18.580Z,93.87
2018-10-19T10:02:47.548Z,93.12
2018-10-19T10:05:15.646Z,94.13
2018-10-19T10:07:43.963Z,95.67
2018-10-19T10:10:12.136Z,93.60
2018-10-19T10:12:40.312Z,95.90
2018-10-19T10:15:08.491Z,96.70
2018-10-19T10:17:36.476Z,99.28
2018-10-19T10:20:04.933Z,96.80
2018-10-19T10:22:33.124Z,97.37
2018-10-19T10:25:01.435Z,95.87
2018-10-19T10:27:29.586Z,92.75
2018-10-19T10:29:57.634Z,94.35
2018-10-19T10:32:25.889Z,89.55
2018-10-19T10:34:54.180Z,89.47
2018-10-19T10:37:22.485Z,89.37
2018-10-19T10:39:50.662Z,86.45
2018-10-19T10:42:18.786Z,87.35
2018-10-19T10:44:47.168Z,85.97
2018-10-19T10:47:15.395Z,84.97
2018-10-19T10:49:43.571Z,86.42
2018-10-19T10:52:11.669Z,87.75
2018-10-19T10:54:39.765Z,85.75
2018-10-19T10:57:08.169Z,82.82
2018-10-19T10:59:36.244Z,83.03
2018-10-19T11:02:04.645Z,83.78
2018-10-19T11:04:32.689Z,82.87
2018-10-19T11:07:00.841Z,82.05
2018-10-19T11:09:28.857Z,81.42
2018-10-19T11:11:57.021Z,81.95
2018-10-19T11:14:25.218Z,79.35
2018-10-19T11:16:53.422Z,79.22
2018-10-19T11:19:21.546Z,79.53
2018-10-19T11:21:49.853Z,76.57
2018-10-19T11:24:18.020Z,76.05
2018-10-19T11:26:46.126Z,74.60
2018-10-19T11:29:14.235Z,73.07
2018-10-19T11:31:42.344Z,70.00
2018-10-19T11:34:10.554Z,71.80
2018-10-19T11:36:38.748Z,70.05
2018-10-19T11:39:08.146Z,68.45
2018-10-19T11:41:36.376Z,70.10
2018-10-19T11:44:04.633Z,68.40
2018-10-19T11:46:32.833Z,68.52
2018-10-19T11:49:01.162Z,67.87
2018-10-19T11:51:29.380Z,67.47
2018-10-19T11:53:57.533Z,70.23
2018-10-19T11:56:25.643Z,69.70
2018-10-19T11:58:53.679Z,68.60
2018-10-19T12:01:22.019Z,70.20
2018-10-19T12:03:50.037Z,70.35
2018-10-19T12:06:18.336Z,67.40
2018-10-19T12:08:46.486Z,61.90
2018-10-19T12:11:14.681Z,63.60
2018-10-19T12:13:42.744Z,63.35
2018-10-19T12:16:10.989Z,63.52
2018-10-19T12:18:39.119Z,66.50
2018-10-19T12:21:07.529Z,63.98
2018-10-19T12:23:35.637Z,63.42
2018-10-19T12:26:04.094Z,61.53
2018-10-19T12:28:32.188Z,63.08
2018-10-19T12:31:00.341Z,62.00
2018-10-19T12:33:28.465Z,61.08
2018-10-19T12:35:56.610Z,63.75
2018-10-19T12:38:24.797Z,60.20
2018-10-19T12:40:53.028Z,59.48
2018-10-19T12:43:21.181Z,62.83
2018-10-19T12:46:28.244Z,62.43
2018-10-19T12:48:56.753Z,60.30
2018-10-19T12:51:24.884Z,64.87
2018-10-19T12:53:53.149Z,65.35
2018-10-19T12:56:21.821Z,65.22
2018-10-19T12:58:50.826Z,64.15
2018-10-19T13:01:19.459Z,62.62
2018-10-19T13:03:47.540Z,61.58
2018-10-19T13:06:15.581Z,59.85
2018-10-19T13:08:43.891Z,61.20
2018-10-19T13:11:11.936Z,61.80
2018-10-19T13:13:40.245Z,62.95
2018-10-19T13:16:08.544Z,68.60
2018-10-19T13:18:36.672Z,66.60
2018-10-19T13:21:04.892Z,67.92
2018-10-19T13:23:33.457Z,62.55
2018-10-19T13:26:01.846Z,60.92
2018-10-19T13:28:30.235Z,60.63
2018-10-19T13:30:58.402Z,59.38
2018-10-19T13:33:26.883Z,60.15
2018-10-19T13:35:55.072Z,59.00
2018-10-19T13:38:23.609Z,61.28
2018-10-19T13:40:52.654Z,57.93
2018-10-19T13:43:21.002Z,59.08
2018-10-19T13:45:49.438Z,57.88
2018-10-19T13:48:17.808Z,58.50
2018-10-19T13:50:45.971Z,51.15
2018-10-19T13:53:14.148Z,53.95
2018-10-19T13:55:42.394Z,54.03
2018-10-19T13:58:10.639Z,55.93
2018-10-19T14:00:38.754Z,55.70
2018-10-19T14:03:06.821Z,53.87
2018-10-19T14:05:34.996Z,51.88
2018-10-19T14:08:03.070Z,54.27
2018-10-19T14:10:31.326Z,55.55
2018-10-19T14:12:59.528Z,57.80
2018-10-19T14:15:27.677Z,57.40
2018-10-19T14:17:55.764Z,57.90
2018-10-19T14:20:24.015Z,59.63
2018-10-19T14:22:52.160Z,59.20
2018-10-19T14:25:20.277Z,60.70
2018-10-19T14:27:48.369Z,57.85
2018-10-19T14:30:17.542Z,60.90
2018-10-19T14:32:45.649Z,59.80
2018-10-19T14:38:05.640Z,59.85
2018-10-19T14:40:33.849Z,60.52
2018-10-19T14:43:02.105Z,61.15
2018-10-19T14:45:30.168Z,60.12
2018-10-19T14:47:58.319Z,60.67
2018-10-19T14:50:26.415Z,61.60
2018-10-19T14:52:54.621Z,58.80
2018-10-19T14:55:22.792Z,61.23
2018-10-19T14:57:50.928Z,59.13
2018-10-19T15:00:19.378Z,58.78
2018-10-19T15:02:47.713Z,58.30
2018-10-19T15:05:17.369Z,58.58
2018-10-19T15:07:45.572Z,60.12
2018-10-19T15:10:15.725Z,58.08
2018-10-19T15:12:44.076Z,58.02
2018-10-19T15:15:14.472Z,57.20
2018-10-19T15:17:42.722Z,56.77
2018-10-19T15:20:11.461Z,56.05
2018-10-19T15:22:39.672Z,56.50
2018-10-19T15:25:08.731Z,55.17
2018-10-19T15:27:37.708Z,55.92
2018-10-19T15:30:07.059Z,55.23
2018-10-19T15:32:35.345Z,55.98
2018-10-19T15:35:03.509Z,53.25
2018-10-19T15:37:31.621Z,53.38
2018-10-19T15:39:59.764Z,52.98
2018-10-19T15:42:27.833Z,52.03
2018-10-19T15:44:55.965Z,50.65
2018-10-19T15:47:25.885Z,52.93
2018-10-19T15:49:55.275Z,50.08
2018-10-19T15:52:23.274Z,51.42
2018-10-19T15:54:51.935Z,51.88
2018-10-19T15:57:20.455Z,51.88
2018-10-19T15:59:48.874Z,51.85
2018-10-19T16:02:17.277Z,51.90
2018-10-19T16:04:45.858Z,51.13
2018-10-19T16:07:14.288Z,51.42
2018-10-19T16:09:42.489Z,52.70
2018-10-19T16:12:10.583Z,52.10
2018-10-19T16:14:38.709Z,48.02
2018-10-19T16:17:07.012Z,48.90
2018-10-19T16:19:35.074Z,49.40
2018-10-19T16:22:03.152Z,51.48
2018-10-19T16:24:31.324Z,52.27
2018-10-19T16:26:59.530Z,53.20
2018-10-19T16:29:27.581Z,52.90
2018-10-19T16:31:55.731Z,52.78
2018-10-19T16:34:23.985Z,53.15
2018-10-19T16:36:52.084Z,54.40
2018-10-19T16:39:20.137Z,53.02
2018-10-19T16:41:48.435Z,52.27
2018-10-19T16:44:16.852Z,54.67
2018-10-19T16:46:44.917Z,54.60
2018-10-19T16:49:13.161Z,55.12
2018-10-19T16:51:41.353Z,56.08
2018-10-19T16:54:09.553Z,56.08
2018-10-19T16:56:37.616Z,54.60
2018-10-19T16:59:05.796Z,56.42
2018-10-19T17:01:33.853Z,54.77
2018-10-19T17:04:01.965Z,57.25
2018-10-19T17:06:29.997Z,58.08
2018-10-19T17:08:58.216Z,58.40
2018-10-19T17:11:26.377Z,55.93
2018-10-19T17:13:54.628Z,57.55
2018-10-19T17:16:22.814Z,59.27
2018-10-19T17:18:51.119Z,60.43
2018-10-19T17:21:19.237Z,58.83
2018-10-19T17:23:47.422Z,62.27
2018-10-19T17:26:15.491Z,61.92
2018-10-19T17:28:43.592Z,61.68
2018-10-19T17:31:11.930Z,63.17
2018-10-19T17:33:40.433Z,63.68
2018-10-19T17:36:08.706Z,60.45
2018-10-19T17:38:36.925Z,60.60
2018-10-19T17:41:05.381Z,62.90
2018-10-19T17:43:33.651Z,65.22
2018-10-19T17:46:01.735Z,63.98
2018-10-19T17:48:29.885Z,63.83
2018-10-19T17:50:58.076Z,63.33
2018-10-19T17:53:26.229Z,66.15
2018-10-19T17:55:54.428Z,64.22
2018-10-19T17:58:22.506Z,65.63
2018-10-19T18:00:50.663Z,73.52
2018-10-19T18:03:18.677Z,64.85
2018-10-19T18:05:46.703Z,64.15
2018-10-19T18:08:15.017Z,62.75
2018-10-19T18:10:43.267Z,66.97
2018-10-19T18:13:11.354Z,67.90
2018-10-19T18:15:39.593Z,67.53
2018-10-19T18:18:07.666Z,66.72
2018-10-19T18:20:35.996Z,65.78
2018-10-19T18:23:04.265Z,68.17
2018-10-19T18:25:32.241Z,71.05
2018-10-19T18:28:00.263Z,63.90
2018-10-19T18:30:28.370Z,69.40
2018-10-19T18:32:56.546Z,67.47
2018-10-19T18:35:24.877Z,66.65
2018-10-19T18:37:53.158Z,68.78
2018-10-19T18:40:21.358Z,70.28
2018-10-19T18:42:49.470Z,69.05
2018-10-19T18:45:17.620Z,71.22
2018-10-19T18:47:45.915Z,70.90
2018-10-19T18:50:14.188Z,70.42
2018-10-19T18:52:42.144Z,74.87
2018-10-19T18:55:10.308Z,75.03
2018-10-19T18:57:38.390Z,66.00
2018-10-19T19:00:08.800Z,64.60
2018-10-19T19:02:36.901Z,68.37
2018-10-19T19:05:05.236Z,68.57
2018-10-19T19:07:33.239Z,68.37
2018-10-19T19:10:06.816Z,72.15
2018-10-19T19:12:34.989Z,73.50
2018-10-19T19:15:03.212Z,71.60
2018-10-19T19:17:31.376Z,72.17
2018-10-19T19:20:04.992Z,76.15
2018-10-19T19:22:33.145Z,74.35
2018-10-19T19:25:06.769Z,74.53
2018-10-19T19:27:34.832Z,61.70
2018-10-19T19:30:03.020Z,62.17
2018-10-19T19:32:31.176Z,60.80
2018-10-19T19:34:59.265Z,58.80
2018-10-19T19:37:27.447Z,71.53
2018-10-19T19:39:55.492Z,79.30
2018-10-19T19:42:29.227Z,68.85
2018-10-19T19:44:57.260Z,67.97
2018-10-19T19:47:30.889Z,70.10
2018-10-19T19:50:00.522Z,72.78
2018-10-19T19:52:28.661Z,74.70
2018-10-19T19:54:56.769Z,79.58
2018-10-19T19:57:24.820Z,76.47
2018-10-19T19:59:53.305Z,78.67
2018-10-19T20:02:21.369Z,84.58
2018-10-19T20:04:49.672Z,81.37
2018-10-19T20:07:17.713Z,77.55
2018-10-19T20:09:46.122Z,78.25
2018-10-19T20:12:14.290Z,81.80
2018-10-19T20:14:42.463Z,68.00
2018-10-19T20:17:10.580Z,69.62
2018-10-19T20:19:38.700Z,65.97
2018-10-19T20:22:06.876Z,59.55
2018-10-19T20:24:37.394Z,60.55
2018-10-19T20:27:05.788Z,54.03
2018-10-19T20:29:34.208Z,54.73
2018-10-19T20:32:02.333Z,67.90
2018-10-19T20:34:30.449Z,67.53
2018-10-19T20:36:58.597Z,66.47
2018-10-19T20:39:26.782Z,77.42
2018-10-19T20:41:54.942Z,68.23
2018-10-19T20:44:23.033Z,65.10
2018-10-19T20:46:51.185Z,65.00
2018-10-19T20:49:21.023Z,60.27
2018-10-19T20:51:49.681Z,60.03
2018-10-19T20:54:17.772Z,60.65
2018-10-19T20:56:45.941Z,56.45
2018-10-19T20:59:14.043Z,54.50
2018-10-19T21:01:42.128Z,62.43
2018-10-19T21:04:10.260Z,65.12
2018-10-19T21:06:38.424Z,67.62
2018-10-19T21:09:08.539Z,69.90
2018-10-19T21:11:37.174Z,65.17
2018-10-19T21:14:05.787Z,77.90
2018-10-19T21:16:34.024Z,100.75
2018-10-19T21:19:02.089Z,106.50
2018-10-19T21:21:30.693Z,109.70
2018-10-19T21:23:58.742Z,94.92
2018-10-19T21:26:27.119Z,69.85
2018-10-19T21:28:55.326Z,65.22
2018-10-19T21:31:23.369Z,62.50
2018-10-19T21:34:04.464Z,60.20
2018-10-19T21:36:32.505Z,61.40
2018-10-19T21:39:00.615Z,63.13
2018-10-19T21:41:28.791Z,69.32
2018-10-19T21:43:57.848Z,65.95
2018-10-19T21:46:25.843Z,62.25
2018-10-19T21:48:53.907Z,58.20
2018-10-19T21:51:33.065Z,55.20
2018-10-19T21:54:03.367Z,57.50
2018-10-19T21:56:33.728Z,56.77
2018-10-19T21:59:04.004Z,50.30
2018-10-19T22:01:43.374Z,46.15
2018-10-19T22:04:14.267Z,49.33
2018-10-19T22:06:44.956Z,51.83
2018-10-19T22:09:15.086Z,57.65
2018-10-19T22:11:43.106Z,58.40
2018-10-19T22:14:11.413Z,56.55
2018-10-19T22:16:40.113Z,57.65
2018-10-19T22:19:09.134Z,67.40
2018-10-19T22:21:37.343Z,69.53
2018-10-19T22:24:06.385Z,73.05
2018-10-19T22:26:34.627Z,75.75
2018-10-19T22:29:02.737Z,70.90
2018-10-19T22:31:30.729Z,73.78
2018-10-19T22:33:58.848Z,76.90
2018-10-19T22:36:27.141Z,78.70
2018-10-19T22:38:55.314Z,78.53
2018-10-19T22:41:23.397Z,78.30
2018-10-19T22:43:51.531Z,76.95
2018-10-19T22:46:19.839Z,74.20
2018-10-19T22:48:48.009Z,74.10
2018-10-19T22:51:16.175Z,76.37
2018-10-19T22:53:44.340Z,75.03
2018-10-19T22:56:12.584Z,79.25
2018-10-19T22:58:40.908Z,81.67
2018-10-19T23:01:09.121Z,77.05
2018-10-19T23:03:37.411Z,71.10
2018-10-19T23:06:05.664Z,73.67
2018-10-19T23:08:33.644Z,74.10
2018-10-19T23:11:01.737Z,70.12
2018-10-19T23:13:29.776Z,69.95
2018-10-19T23:15:57.944Z,70.35
2018-10-19T23:18:26.003Z,65.30
2018-10-19T23:20:54.086Z,70.15
2018-10-19T23:23:22.159Z,68.83
2018-10-19T23:25:50.445Z,66.30
2018-10-19T23:28:18.601Z,70.05
2018-10-19T23:30:46.961Z,67.82
2018-10-19T23:33:15.132Z,68.00
2018-10-19T23:35:43.253Z,62.00
2018-10-19T23:38:11.414Z,63.15
2018-10-19T23:40:39.604Z,61.65
2018-10-19T23:43:07.828Z,61.75
2018-10-19T23:45:36.106Z,63.90
2018-10-19T23:48:04.513Z,73.45
2018-10-19T23:50:32.797Z,72.60
2018-10-19T23:53:00.914Z,71.85
2018-10-19T23:55:29.132Z,76.28
2018-10-19T23:57:57.545Z,87.80
